createdAt,value
2024-01-08T00:00:43.459Z,7.03
2024-01-08T00:03:10.125Z,7.01
2024-01-08T00:05:40.651Z,7.02
2024-01-08T00:08:09.052Z,7.01
2024-01-08T00:10:38.842Z,7.01
2024-01-08T00:13:06.048Z,7.00
2024-01-08T00:15:32.786Z,6.99
2024-01-08T00:17:59.565Z,7.00
2024-01-08T00:20:26.306Z,6.99
2024-01-08T00:22:52.966Z,7.00
2024-01-08T00:25:23.372Z,6.98
2024-01-08T00:27:53.090Z,6.97
2024-01-08T00:30:20.384Z,6.94
2024-01-08T00:32:48.159Z,6.98
2024-01-08T00:35:15.624Z,6.97
2024-01-08T00:37:42.703Z,6.96
2024-01-08T00:40:13.052Z,6.96
2024-01-08T00:42:40.728Z,6.95
2024-01-08T00:45:08.648Z,6.93
2024-01-08T00:47:35.946Z,6.93
2024-01-08T00:50:03.961Z,6.94
2024-01-08T00:52:30.757Z,6.93
2024-01-08T00:55:03.245Z,6.94
2024-01-08T00:57:29.859Z,6.91
2024-01-08T00:59:56.465Z,6.94
2024-01-08T01:02:23.102Z,6.94
2024-01-08T01:04:50.166Z,6.93
2024-01-08T01:07:17.230Z,6.92
2024-01-08T01:09:43.813Z,6.91
2024-01-08T01:12:11.156Z,6.91
2024-01-08T01:14:37.881Z,6.90
2024-01-08T01:17:04.866Z,6.90
2024-01-08T01:19:31.596Z,6.89
2024-01-08T01:21:58.264Z,6.89
2024-01-08T01:24:25.231Z,6.89
2024-01-08T01:26:51.948Z,6.89
2024-01-08T01:29:18.600Z,6.89
2024-01-08T01:31:45.203Z,6.88
2024-01-08T01:34:12.209Z,6.88
2024-01-08T01:36:39.168Z,6.87
2024-01-08T01:39:06.054Z,6.86
2024-01-08T01:41:33.437Z,6.87
2024-01-08T01:44:00.432Z,6.86
2024-01-08T01:46:34.604Z,6.81
2024-01-08T01:49:01.462Z,6.84
2024-01-08T01:51:28.146Z,6.85
2024-01-08T01:53:55.125Z,6.85
2024-01-08T01:56:21.814Z,6.82
2024-01-08T01:58:48.813Z,6.84
2024-01-08T02:01:15.835Z,6.81
2024-01-08T02:03:43.215Z,6.85
2024-01-08T02:06:12.465Z,6.85
2024-01-08T02:08:40.012Z,6.85
2024-01-08T02:11:06.623Z,6.85
2024-01-08T02:13:33.225Z,6.88
2024-01-08T02:15:59.946Z,6.88
2024-01-08T02:18:26.620Z,6.87
2024-01-08T02:20:53.233Z,6.87
2024-01-08T02:23:19.964Z,6.88
2024-01-08T02:25:46.718Z,6.88
2024-01-08T02:28:13.312Z,6.86
2024-01-08T02:30:39.971Z,6.85
2024-01-08T02:33:06.594Z,6.83
2024-01-08T02:35:33.307Z,6.82
2024-01-08T02:37:59.973Z,6.81
2024-01-08T02:40:27.499Z,6.81
2024-01-08T02:42:54.243Z,6.80
2024-01-08T02:45:20.950Z,6.81
2024-01-08T02:47:47.678Z,6.79
2024-01-08T02:50:14.446Z,6.79
2024-01-08T02:52:41.084Z,6.81
2024-01-08T02:55:08.197Z,6.81
2024-01-08T02:57:34.864Z,6.80
2024-01-08T03:00:04.988Z,6.79
2024-01-08T03:02:32.460Z,6.79
2024-01-08T03:04:59.227Z,6.79
2024-01-08T03:07:25.833Z,6.78
2024-01-08T03:09:57.934Z,6.78
2024-01-08T03:12:25.391Z,6.79
2024-01-08T03:14:52.619Z,6.78
2024-01-08T03:17:19.330Z,6.77
2024-01-08T03:19:46.085Z,6.78
2024-01-08T03:22:12.707Z,6.78
2024-01-08T03:24:39.309Z,6.77
2024-01-08T03:27:05.931Z,6.76
2024-01-08T03:29:32.746Z,6.74
2024-01-08T03:31:59.437Z,6.75
2024-01-08T03:34:26.202Z,6.76
2024-01-08T03:36:52.961Z,6.74
2024-01-08T03:39:19.562Z,6.75
2024-01-08T03:41:46.140Z,6.74
2024-01-08T03:44:14.620Z,6.75
2024-01-08T03:46:41.552Z,6.75
2024-01-08T03:49:08.295Z,6.73
2024-01-08T03:51:37.881Z,6.74
2024-01-08T03:54:04.584Z,6.73
2024-01-08T03:56:31.254Z,6.72
2024-01-08T03:58:58.007Z,6.67
2024-01-08T04:01:24.947Z,6.71
2024-01-08T04:03:51.591Z,6.71
2024-01-08T04:06:18.566Z,6.71
2024-01-08T04:08:45.255Z,6.67
2024-01-08T04:11:11.963Z,6.71
2024-01-08T04:13:39.893Z,6.67
2024-01-08T04:16:06.840Z,6.71
2024-01-08T04:18:33.741Z,6.73
2024-01-08T04:21:00.480Z,6.73
2024-01-08T04:23:27.114Z,6.73
2024-01-08T04:25:53.781Z,6.73
2024-01-08T04:28:22.098Z,6.73
2024-01-08T04:30:48.566Z,6.73
2024-01-08T04:33:15.421Z,6.73
2024-01-08T04:35:42.070Z,6.72
2024-01-08T04:38:08.715Z,6.71
2024-01-08T04:40:35.288Z,6.70
2024-01-08T04:43:01.866Z,6.68
2024-01-08T04:45:28.482Z,6.68
2024-01-08T04:47:55.187Z,6.70
2024-01-08T04:50:21.904Z,6.68
2024-01-08T04:52:48.537Z,6.67
2024-01-08T04:55:15.564Z,6.66
2024-01-08T04:57:42.307Z,6.66
2024-01-08T05:00:09.345Z,6.64
2024-01-08T05:02:36.199Z,6.63
2024-01-08T05:05:05.988Z,6.64
2024-01-08T05:07:32.655Z,6.63
2024-01-08T05:09:59.742Z,6.63
2024-01-08T05:12:26.340Z,6.63
2024-01-08T05:14:52.931Z,6.63
2024-01-08T05:17:21.623Z,6.63
2024-01-08T05:19:49.683Z,6.63
2024-01-08T05:22:16.284Z,6.61
2024-01-08T05:24:42.886Z,6.59
2024-01-08T05:27:09.496Z,6.58
2024-01-08T05:29:36.151Z,6.59
2024-01-08T05:32:02.901Z,6.60
2024-01-08T05:34:29.950Z,6.59
2024-01-08T05:36:57.477Z,6.58
2024-01-08T05:39:24.095Z,6.57
2024-01-08T05:41:50.753Z,6.57
2024-01-08T05:44:17.382Z,6.56
2024-01-08T05:46:45.050Z,6.56
2024-01-08T05:49:11.999Z,6.56
2024-01-08T05:51:38.649Z,6.55
2024-01-08T05:54:05.280Z,6.56
2024-01-08T05:56:32.881Z,6.55
2024-01-08T05:59:00.703Z,6.54
2024-01-08T06:01:27.395Z,6.53
2024-01-08T06:03:54.078Z,6.54
2024-01-08T06:06:21.935Z,6.51
2024-01-08T06:08:50.055Z,6.51
2024-01-08T06:11:17.909Z,6.50
2024-01-08T06:13:44.587Z,6.51
2024-01-08T06:16:16.899Z,6.50
2024-01-08T06:18:43.844Z,6.50
2024-01-08T06:21:10.492Z,6.50
2024-01-08T06:23:37.226Z,6.51
2024-01-08T06:26:04.647Z,6.50
2024-01-08T06:28:31.355Z,6.49
2024-01-08T06:30:58.117Z,6.48
2024-01-08T06:33:25.024Z,6.45
2024-01-08T06:35:51.856Z,6.45
2024-01-08T06:38:18.539Z,6.45
2024-01-08T06:40:45.225Z,6.45
2024-01-08T06:43:12.172Z,6.44
2024-01-08T06:45:38.728Z,6.43
2024-01-08T06:48:05.628Z,6.44
2024-01-08T06:50:32.449Z,6.43
2024-01-08T06:52:59.067Z,6.43
2024-01-08T06:55:25.651Z,6.40
2024-01-08T06:57:54.079Z,6.40
2024-01-08T07:00:22.300Z,6.41
2024-01-08T07:02:49.270Z,6.40
2024-01-08T07:05:16.843Z,6.36
2024-01-08T07:07:43.472Z,6.39
2024-01-08T07:10:10.309Z,6.40
2024-01-08T07:12:37.009Z,6.38
2024-01-08T07:15:08.245Z,6.39
2024-01-08T07:17:35.021Z,6.37
2024-01-08T07:20:01.890Z,6.33
2024-01-08T07:22:28.669Z,6.37
2024-01-08T07:24:55.243Z,6.36
2024-01-08T07:27:21.813Z,6.31
2024-01-08T07:29:48.418Z,6.33
2024-01-08T07:32:15.809Z,6.34
2024-01-08T07:34:42.559Z,6.33
2024-01-08T07:37:09.187Z,6.33
2024-01-08T07:39:35.767Z,6.33
2024-01-08T07:42:02.338Z,6.10
2024-01-08T07:44:28.937Z,5.92
2024-01-08T07:46:55.578Z,5.94
2024-01-08T07:49:22.220Z,5.97
2024-01-08T07:51:48.844Z,5.98
2024-01-08T07:54:15.450Z,6.00
2024-01-08T07:56:52.710Z,6.02
2024-01-08T07:59:23.782Z,6.03
2024-01-08T08:01:50.411Z,6.06
2024-01-08T08:04:17.082Z,6.07
2024-01-08T08:06:45.278Z,6.07
2024-01-08T08:09:11.909Z,6.08
2024-01-08T08:11:40.550Z,6.09
2024-01-08T08:14:07.280Z,6.10
2024-01-08T08:16:34.010Z,6.11
2024-01-08T08:19:00.763Z,6.11
2024-01-08T08:21:27.474Z,6.11
2024-01-08T08:23:54.849Z,6.13
2024-01-08T08:26:21.651Z,6.14
2024-01-08T08:28:48.350Z,6.14
2024-01-08T08:31:15.019Z,6.14
2024-01-08T08:33:43.479Z,6.17
2024-01-08T08:36:10.448Z,6.15
2024-01-08T08:38:38.644Z,6.17
2024-01-08T08:41:07.463Z,6.16
2024-01-08T08:43:35.164Z,6.18
2024-01-08T08:46:03.280Z,6.18
2024-01-08T08:48:30.178Z,6.19
2024-01-08T08:50:56.793Z,6.20
2024-01-08T08:53:23.402Z,6.19
2024-01-08T08:55:50.037Z,6.19
2024-01-08T08:58:16.613Z,6.19
2024-01-08T09:00:43.219Z,6.19
2024-01-08T09:03:09.851Z,6.18
2024-01-08T09:05:40.380Z,6.19
2024-01-08T09:08:10.493Z,6.17
2024-01-08T09:10:37.087Z,6.17
2024-01-08T09:13:03.839Z,6.16
2024-01-08T09:15:30.541Z,6.16
2024-01-08T09:17:57.226Z,6.16
2024-01-08T09:20:24.348Z,6.17
2024-01-08T09:22:51.051Z,6.17
2024-01-08T09:25:17.989Z,6.17
2024-01-08T09:27:44.589Z,6.16
2024-01-08T09:30:11.681Z,6.16
2024-01-08T09:32:38.714Z,6.17
2024-01-08T09:35:06.035Z,6.16
2024-01-08T09:37:32.686Z,6.16
2024-01-08T09:39:59.264Z,6.17
2024-01-08T09:42:28.563Z,6.19
2024-01-08T09:44:55.996Z,6.20
2024-01-08T09:47:22.682Z,6.20
2024-01-08T09:49:49.646Z,6.19
2024-01-08T09:52:18.284Z,6.18
2024-01-08T09:54:44.933Z,6.20
2024-01-08T09:57:11.923Z,6.22
2024-01-08T09:59:38.773Z,6.21
2024-01-08T10:02:05.778Z,6.21
2024-01-08T10:04:32.504Z,6.21
2024-01-08T10:07:08.515Z,6.22
2024-01-08T10:09:35.831Z,6.21
2024-01-08T10:12:02.449Z,6.23
2024-01-08T10:14:29.260Z,6.23
2024-01-08T10:17:01.867Z,6.21
2024-01-08T10:19:29.970Z,6.19
2024-01-08T10:22:13.974Z,6.19
2024-01-08T10:24:43.129Z,6.20
2024-01-08T10:27:11.236Z,6.20
2024-01-08T10:29:39.350Z,6.19
2024-01-08T10:32:07.071Z,6.19
2024-01-08T10:34:35.372Z,6.19
2024-01-08T10:37:02.205Z,6.19
2024-01-08T10:39:43.339Z,6.20
2024-01-08T10:42:15.397Z,6.20
2024-01-08T10:44:42.205Z,6.20
2024-01-08T10:47:21.051Z,6.22
2024-01-08T10:49:57.721Z,6.24
2024-01-08T10:52:33.881Z,6.24
2024-01-08T10:55:03.752Z,6.25
2024-01-08T10:57:49.018Z,6.25
2024-01-08T11:00:15.899Z,6.26
2024-01-08T11:02:43.604Z,6.26
2024-01-08T11:05:11.244Z,6.28
2024-01-08T11:07:42.790Z,6.29
2024-01-08T11:10:13.024Z,6.30
2024-01-08T11:12:41.948Z,6.29
2024-01-08T11:15:10.574Z,6.30
2024-01-08T11:17:37.479Z,6.30
2024-01-08T11:20:08.288Z,6.31
2024-01-08T11:22:38.782Z,6.31
2024-01-08T11:25:06.368Z,6.31
2024-01-08T11:27:33.002Z,6.32
2024-01-08T11:30:04.002Z,6.30
2024-01-08T11:32:54.074Z,6.32
2024-01-08T11:35:21.679Z,6.32
2024-01-08T11:38:21.244Z,6.32
2024-01-08T11:40:47.818Z,6.31
2024-01-08T11:43:15.181Z,6.33
2024-01-08T11:45:41.800Z,6.34
2024-01-08T11:48:09.322Z,6.34
2024-01-08T11:50:36.073Z,6.34
2024-01-08T11:53:05.201Z,6.35
2024-01-08T11:55:32.984Z,6.34
2024-01-08T11:57:59.890Z,6.36
2024-01-08T12:00:30.361Z,6.35
2024-01-08T12:03:08.598Z,6.35
2024-01-08T12:05:35.380Z,6.36
2024-01-08T12:08:02.134Z,6.36
2024-01-08T12:10:28.778Z,6.36
2024-01-08T12:12:56.498Z,6.37
2024-01-08T12:15:23.942Z,6.37
2024-01-08T12:17:51.038Z,6.37
2024-01-08T12:20:17.870Z,6.38
2024-01-08T12:22:44.957Z,6.38
2024-01-08T12:25:11.725Z,6.39
2024-01-08T12:27:40.017Z,6.40
2024-01-08T12:30:08.701Z,6.42
2024-01-08T12:32:37.623Z,6.41
2024-01-08T12:35:06.655Z,6.43
2024-01-08T12:37:34.821Z,6.40
2024-01-08T12:40:02.423Z,6.41
2024-01-08T12:42:29.330Z,6.39
2024-01-08T12:44:57.227Z,6.40
2024-01-08T12:47:24.250Z,6.42
2024-01-08T12:49:51.106Z,6.43
2024-01-08T12:52:17.821Z,6.43
2024-01-08T12:54:45.100Z,6.41
2024-01-08T12:57:12.920Z,6.44
2024-01-08T12:59:53.596Z,6.42
2024-01-08T13:02:20.754Z,6.44
2024-01-08T13:04:48.057Z,6.42
2024-01-08T13:07:14.649Z,6.43
2024-01-08T13:09:41.260Z,6.41
2024-01-08T13:12:10.243Z,6.42
2024-01-08T13:14:37.039Z,6.41
2024-01-08T13:17:04.558Z,6.41
2024-01-08T13:19:34.417Z,6.41
2024-01-08T13:22:03.205Z,6.43
2024-01-08T13:24:29.960Z,6.41
2024-01-08T13:26:56.663Z,6.40
2024-01-08T13:29:23.557Z,6.40
2024-01-08T13:31:50.354Z,6.38
2024-01-08T13:34:17.215Z,6.40
2024-01-08T13:36:43.903Z,6.39
2024-01-08T13:39:11.592Z,6.40
2024-01-08T13:41:43.611Z,6.40
2024-01-08T13:44:11.751Z,6.38
2024-01-08T13:46:38.927Z,6.38
2024-01-08T13:49:06.192Z,6.39
2024-01-08T13:51:32.929Z,6.38
2024-01-08T13:53:59.637Z,6.37
2024-01-08T13:56:26.335Z,6.37
2024-01-08T13:58:53.065Z,6.37
2024-01-08T14:01:19.879Z,6.37
2024-01-08T14:03:46.676Z,6.36
2024-01-08T14:06:14.414Z,6.36
2024-01-08T14:08:41.675Z,6.37
2024-01-08T14:11:08.828Z,6.36
2024-01-08T14:13:35.523Z,6.35
2024-01-08T14:16:02.577Z,6.35
2024-01-08T14:18:29.635Z,6.33
2024-01-08T14:20:56.633Z,6.33
2024-01-08T14:23:23.387Z,6.35
2024-01-08T14:25:49.996Z,6.35
2024-01-08T14:28:16.643Z,6.35
2024-01-08T14:30:43.440Z,6.34
2024-01-08T14:33:10.361Z,6.33
2024-01-08T14:35:37.179Z,6.31
2024-01-08T14:38:04.162Z,6.32
2024-01-08T14:40:30.945Z,6.30
2024-01-08T14:43:01.261Z,6.32
2024-01-08T14:45:28.262Z,6.31
2024-01-08T14:47:55.136Z,6.31
2024-01-08T14:50:23.793Z,6.30
2024-01-08T14:52:51.046Z,6.30
2024-01-08T14:55:18.006Z,6.30
2024-01-08T14:57:44.861Z,6.30
2024-01-08T15:00:12.684Z,6.29
2024-01-08T15:02:41.840Z,6.31
2024-01-08T15:05:10.782Z,6.31
2024-01-08T15:07:38.422Z,6.30
2024-01-08T15:10:08.961Z,6.28
2024-01-08T15:12:36.040Z,6.28
2024-01-08T15:15:02.834Z,6.29
2024-01-08T15:17:29.608Z,6.26
2024-01-08T15:19:56.264Z,6.29
2024-01-08T15:22:22.929Z,6.28
2024-01-08T15:24:56.657Z,6.27
2024-01-08T15:27:26.267Z,6.27
2024-01-08T15:29:54.086Z,6.27
2024-01-08T15:32:22.705Z,6.27
2024-01-08T15:34:49.452Z,6.25
2024-01-08T15:37:16.429Z,6.25
2024-01-08T15:39:43.004Z,6.25
2024-01-08T15:42:09.656Z,6.24
2024-01-08T15:44:36.353Z,6.24
2024-01-08T15:47:03.051Z,6.22
2024-01-08T15:49:29.766Z,6.23
2024-01-08T15:51:56.393Z,6.21
2024-01-08T15:54:24.847Z,6.22
2024-01-08T15:56:51.802Z,6.21
2024-01-08T15:59:18.660Z,6.21
2024-01-08T16:01:45.374Z,6.21
2024-01-08T16:04:12.115Z,6.22
2024-01-08T16:06:38.822Z,6.21
2024-01-08T16:09:06.485Z,6.20
2024-01-08T16:11:33.396Z,6.21
2024-01-08T16:14:00.277Z,6.19
2024-01-08T16:16:27.625Z,6.19
2024-01-08T16:18:54.610Z,6.20
2024-01-08T16:21:21.286Z,6.18
2024-01-08T16:23:55.672Z,6.18
2024-01-08T16:26:29.378Z,6.18
2024-01-08T16:28:56.021Z,6.19
2024-01-08T16:31:22.734Z,6.18
2024-01-08T16:33:49.505Z,6.19
2024-01-08T16:36:16.491Z,6.18
2024-01-08T16:38:43.316Z,6.19
2024-01-08T16:41:09.972Z,6.18
2024-01-08T16:43:36.592Z,6.18
2024-01-08T16:46:03.540Z,6.14
2024-01-08T16:48:31.117Z,6.18
2024-01-08T16:50:57.965Z,6.19
2024-01-08T16:53:25.197Z,6.19
2024-01-08T16:55:51.858Z,6.18
2024-01-08T16:58:18.428Z,6.18
2024-01-08T17:00:45.049Z,6.17
2024-01-08T17:03:11.790Z,6.18
2024-01-08T17:05:39.191Z,6.17
2024-01-08T17:08:06.047Z,6.17
2024-01-08T17:10:32.618Z,6.18
2024-01-08T17:12:59.255Z,6.16
2024-01-08T17:15:25.866Z,6.18
2024-01-08T17:17:54.749Z,6.19
2024-01-08T17:20:21.729Z,6.19
2024-01-08T17:22:48.782Z,6.19
2024-01-08T17:25:16.061Z,6.19
2024-01-08T17:27:42.770Z,6.18
2024-01-08T17:30:10.999Z,6.19
2024-01-08T17:32:39.165Z,6.18
2024-01-08T17:35:06.580Z,6.19
2024-01-08T17:37:34.546Z,6.18
2024-01-08T17:40:01.246Z,6.18
2024-01-08T17:42:27.937Z,6.17
2024-01-08T17:44:54.494Z,6.16
2024-01-08T17:47:21.126Z,6.17
2024-01-08T17:49:49.072Z,6.16
2024-01-08T17:52:15.664Z,6.15
2024-01-08T17:54:42.251Z,6.15
2024-01-08T17:57:08.863Z,6.15
2024-01-08T17:59:38.052Z,6.15
2024-01-08T18:02:04.981Z,6.14
2024-01-08T18:04:31.768Z,6.14
2024-01-08T18:06:58.886Z,6.16
2024-01-08T18:09:25.625Z,6.14
2024-01-08T18:11:52.199Z,6.12
2024-01-08T18:14:19.322Z,6.12
2024-01-08T18:16:47.093Z,6.12
2024-01-08T18:19:14.176Z,6.12
2024-01-08T18:21:42.819Z,6.12
2024-01-08T18:24:20.339Z,6.12
2024-01-08T18:26:54.555Z,6.12
2024-01-08T18:29:21.681Z,6.12
2024-01-08T18:31:48.484Z,6.12
2024-01-08T18:34:16.572Z,6.11
2024-01-08T18:36:43.983Z,6.10
2024-01-08T18:39:12.925Z,6.11
2024-01-08T18:41:39.741Z,6.11
2024-01-08T18:44:06.428Z,6.10
2024-01-08T18:46:33.174Z,6.11
2024-01-08T18:48:59.869Z,6.11
2024-01-08T18:51:26.597Z,6.11
2024-01-08T18:53:53.629Z,6.11
2024-01-08T18:56:20.323Z,6.11
2024-01-08T18:58:46.954Z,6.11
2024-01-08T19:01:13.602Z,6.12
2024-01-08T19:03:40.354Z,6.11
2024-01-08T19:06:08.929Z,6.12
2024-01-08T19:08:35.951Z,6.10
2024-01-08T19:11:02.845Z,6.10
2024-01-08T19:13:33.520Z,6.10
2024-01-08T19:16:00.110Z,6.07
2024-01-08T19:18:26.930Z,6.11
2024-01-08T19:20:53.950Z,6.12
2024-01-08T19:23:23.286Z,6.11
2024-01-08T19:25:53.189Z,6.13
2024-01-08T19:28:19.827Z,6.13
2024-01-08T19:30:46.904Z,6.12
2024-01-08T19:33:13.782Z,6.12
2024-01-08T19:35:40.849Z,6.12
2024-01-08T19:38:08.167Z,6.12
2024-01-08T19:40:35.060Z,6.12
2024-01-08T19:43:02.015Z,6.12
2024-01-08T19:45:38.114Z,6.11
2024-01-08T19:48:06.507Z,6.13
2024-01-08T19:50:33.448Z,6.11
2024-01-08T19:53:00.129Z,6.12
2024-01-08T19:55:27.336Z,6.11
2024-01-08T19:57:53.994Z,6.09
2024-01-08T20:00:20.896Z,6.09
2024-01-08T20:02:47.631Z,6.10
2024-01-08T20:05:14.507Z,6.11
2024-01-08T20:07:41.227Z,6.08
2024-01-08T20:10:09.285Z,6.09
2024-01-08T20:12:36.344Z,6.10
2024-01-08T20:15:03.277Z,6.10
2024-01-08T20:17:29.974Z,6.09
2024-01-08T20:19:58.444Z,6.08
2024-01-08T20:22:25.005Z,6.10
2024-01-08T20:24:52.401Z,6.08
2024-01-08T20:27:19.210Z,6.07
2024-01-08T20:29:46.823Z,6.07
2024-01-08T20:32:13.557Z,6.05
2024-01-08T20:34:40.260Z,6.06
2024-01-08T20:37:06.938Z,6.06
2024-01-08T20:39:33.539Z,6.05
2024-01-08T20:42:00.952Z,6.05
2024-01-08T20:44:27.942Z,6.06
2024-01-08T20:46:54.638Z,6.04
2024-01-08T20:49:27.426Z,6.05
2024-01-08T20:51:55.736Z,6.04
2024-01-08T20:54:23.182Z,6.05
2024-01-08T20:56:50.356Z,6.05
2024-01-08T20:59:17.154Z,6.03
2024-01-08T21:01:43.904Z,6.04
2024-01-08T21:04:11.140Z,6.05
2024-01-08T21:06:37.989Z,6.03
2024-01-08T21:09:06.052Z,6.05
2024-01-08T21:11:33.184Z,6.05
2024-01-08T21:13:59.919Z,6.04
2024-01-08T21:16:26.751Z,6.04
2024-01-08T21:18:55.054Z,6.04
2024-01-08T21:21:21.905Z,6.04
2024-01-08T21:23:48.618Z,6.04
2024-01-08T21:26:16.087Z,6.04
2024-01-08T21:28:42.795Z,6.05
2024-01-08T21:31:12.300Z,6.03
2024-01-08T21:33:40.646Z,6.05
2024-01-08T21:36:07.583Z,6.05
2024-01-08T21:38:37.426Z,6.03
2024-01-08T21:41:05.121Z,6.04
2024-01-08T21:43:34.973Z,6.05
2024-01-08T21:46:03.200Z,6.06
2024-01-08T21:48:30.895Z,6.03
2024-01-08T21:50:57.721Z,6.03
2024-01-08T21:53:24.490Z,6.03
2024-01-08T21:55:51.332Z,6.02
2024-01-08T21:58:17.914Z,6.02
2024-01-08T22:00:44.738Z,6.02
2024-01-08T22:03:11.555Z,6.03
2024-01-08T22:05:38.342Z,6.02
2024-01-08T22:08:05.438Z,6.02
2024-01-08T22:10:32.100Z,6.02
2024-01-08T22:12:59.155Z,6.04
2024-01-08T22:15:25.825Z,6.03
2024-01-08T22:17:52.579Z,6.04
2024-01-08T22:20:19.254Z,6.04
2024-01-08T22:22:47.938Z,6.04
2024-01-08T22:25:15.061Z,6.04
2024-01-08T22:27:42.843Z,6.04
2024-01-08T22:30:10.275Z,6.03
2024-01-08T22:32:37.208Z,6.04
2024-01-08T22:35:04.123Z,6.04
2024-01-08T22:37:30.736Z,6.01
2024-01-08T22:39:57.408Z,6.02
2024-01-08T22:42:25.113Z,6.04
2024-01-08T22:44:52.881Z,6.04
2024-01-08T22:47:19.570Z,6.03
2024-01-08T22:49:46.351Z,6.03
2024-01-08T22:52:12.968Z,6.03
2024-01-08T22:54:39.544Z,6.03
2024-01-08T22:57:06.165Z,6.02
2024-01-08T22:59:33.596Z,6.02
2024-01-08T23:02:00.270Z,6.02
2024-01-08T23:04:27.449Z,6.02
2024-01-08T23:06:54.048Z,6.02
2024-01-08T23:09:20.667Z,6.01
2024-01-08T23:11:47.353Z,6.02
2024-01-08T23:14:14.228Z,6.01
2024-01-08T23:16:40.833Z,6.00
2024-01-08T23:19:07.633Z,6.00
2024-01-08T23:21:34.248Z,6.00
2024-01-08T23:24:00.897Z,5.96
2024-01-08T23:26:27.606Z,6.00
2024-01-08T23:28:54.252Z,6.00
2024-01-08T23:31:20.888Z,6.00
2024-01-08T23:33:47.598Z,5.99
2024-01-08T23:36:14.221Z,6.00
2024-01-08T23:38:40.867Z,5.99
2024-01-08T23:41:07.544Z,5.98
2024-01-08T23:43:34.160Z,5.97
2024-01-08T23:46:00.745Z,5.98
2024-01-08T23:48:27.584Z,5.97
2024-01-08T23:50:54.411Z,5.99
2024-01-08T23:53:21.176Z,5.97
2024-01-08T23:55:47.785Z,5.98
2024-01-08T23:58:14.393Z,5.98
